Time;durP1;ratioP1;P1;durP2;ratioP2;P2;SDS_P1;SDS_P2;PMS_P1;PMS_P2;Temp;Humidity;BMP_temperature;BMP_pressure;BME280_temperature;BME280_humidity;BME280_pressure;Samples;Min_cycle;Max_cycle;Signal;HPM_P1;HPM_P2
2021/04/28 12:40:39;;;;;;;56.58;54.10;;;;;;;;;;5090934;27;20537;-71
2021/04/28 12:43:07;;;;;;;68.70;65.70;;;;;;;;;;5090874;28;20633;-75
2021/04/28 12:45:34;;;;;;;77.55;74.18;;;;;;;;;;5088117;28;20183;-75
2021/04/28 12:48:11;;;;;;;85.82;82.10;;;;;;;;;;5090393;28;20541;-75
2021/04/28 12:50:38;;;;;;;83.47;79.78;;;;;;;;;;5090029;28;20171;-75
2021/04/28 12:53:05;;;;;;;93.47;89.43;;;;;;;;;;5090399;28;20240;-75
2021/04/28 12:55:37;;;;;;;97.18;92.93;;;;;;;;;;5090663;28;20163;-76
2021/04/28 12:58:04;;;;;;;98.43;94.10;;;;;;;;;;5090579;28;20171;-75
2021/04/28 13:00:34;;;;;;;107.72;102.95;;;;;;;;;;5089241;28;20710;-76
2021/04/28 13:03:13;;;;;;;109.90;104.97;;;;;;;;;;5090046;28;20194;-76
2021/04/28 13:05:41;;;;;;;114.68;109.53;;;;;;;;;;5090366;28;20182;-74
2021/04/28 13:08:25;;;;;;;129.55;123.68;;;;;;;;;;5090364;28;20167;-78
2021/04/28 13:10:58;;;;;;;144.02;137.55;;;;;;;;;;5090121;28;20192;-77
2021/04/28 13:13:28;;;;;;;159.68;152.45;;;;;;;;;;5090247;28;20195;-72
2021/04/28 13:15:54;;;;;;;147.05;139.85;;;;;;;;;;5089628;28;20537;-73
2021/04/28 13:18:20;;;;;;;164.23;156.80;;;;;;;;;;5089945;28;20250;-71
2021/04/28 13:20:46;;;;;;;156.73;149.57;;;;;;;;;;5090021;28;20290;-71
2021/04/28 13:23:13;;;;;;;167.38;159.68;;;;;;;;;;5090118;28;20226;-72
2021/04/28 13:25:51;;;;;;;174.55;166.60;;;;;;;;;;5090062;28;20546;-74
2021/04/28 13:28:32;;;;;;;184.02;175.48;;;;;;;;;;5090008;28;20170;-73
2021/04/28 13:31:14;;;;;;;208.50;199.20;;;;;;;;;;5089974;28;20163;-74
2021/04/28 13:33:40;;;;;;;198.70;189.10;;;;;;;;;;5090080;28;20202;-87
2021/04/28 13:36:06;;;;;;;197.57;188.65;;;;;;;;;;5089966;28;20167;-77
2021/04/28 13:38:51;;;;;;;187.30;178.88;;;;;;;;;;5089641;28;20172;-78
2021/04/28 13:41:18;;;;;;;203.52;194.43;;;;;;;;;;5089759;28;20170;-75
2021/04/28 13:43:44;;;;;;;198.82;189.98;;;;;;;;;;5089679;28;20159;-78
2021/04/28 13:46:10;;;;;;;192.27;183.70;;;;;;;;;;5089656;28;20159;-72
2021/04/28 13:48:36;;;;;;;202.18;193.13;;;;;;;;;;5089637;28;20212;-72
2021/04/28 13:51:02;;;;;;;203.10;194.00;;;;;;;;;;5081717;28;20205;-72
2021/04/28 13:53:56;;;;;;;188.57;180.13;;;;;;;;;;5076013;28;20168;-72
2021/04/28 13:56:23;;;;;;;198.63;189.57;;;;;;;;;;5074494;28;20222;-72
2021/04/28 13:58:49;;;;;;;193.65;184.98;;;;;;;;;;5075930;28;20195;-72
2021/04/28 14:01:15;;;;;;;223.43;213.52;;;;;;;;;;5075911;28;20171;-72
2021/04/28 14:03:42;;;;;;;194.15;185.48;;;;;;;;;;5075795;28;20171;-72
2021/04/28 14:06:10;;;;;;;222.02;212.18;;;;;;;;;;5075836;28;20164;-72
2021/04/28 14:08:36;;;;;;;218.65;208.95;;;;;;;;;;5075686;28;20282;-72
2021/04/28 14:11:02;;;;;;;179.60;171.57;;;;;;;;;;5075715;28;20172;-72
2021/04/28 14:13:30;;;;;;;169.73;162.00;;;;;;;;;;5074403;28;20195;-73
2021/04/28 14:15:57;;;;;;;195.77;187.00;;;;;;;;;;5075710;28;20172;-72
2021/04/28 14:18:23;;;;;;;200.38;191.45;;;;;;;;;;5075392;28;20204;-73
2021/04/28 14:20:49;;;;;;;207.85;197.60;;;;;;;;;;5075267;28;20192;-72
2021/04/28 14:23:15;;;;;;;223.63;213.65;;;;;;;;;;5074241;28;20206;-72
2021/04/28 14:25:41;;;;;;;237.68;227.20;;;;;;;;;;5075514;28;20646;-72
2021/04/28 14:28:07;;;;;;;250.10;239.05;;;;;;;;;;5075441;28;20277;-72
2021/04/28 14:30:33;;;;;;;254.57;243.25;;;;;;;;;;5075333;28;20214;-71
2021/04/28 14:32:59;;;;;;;203.90;194.77;;;;;;;;;;5075394;28;20186;-72
2021/04/28 14:35:25;;;;;;;158.82;151.55;;;;;;;;;;5073963;28;20586;-72
2021/04/28 14:37:51;;;;;;;197.65;188.73;;;;;;;;;;5075231;28;20184;-71
2021/04/28 14:40:18;;;;;;;203.45;194.40;;;;;;;;;;5075050;28;20700;-72
2021/04/28 14:42:44;;;;;;;182.10;173.88;;;;;;;;;;5073922;28;20613;-71
2021/04/28 14:45:10;;;;;;;178.60;170.40;;;;;;;;;;5075071;28;20179;-72
2021/04/28 14:47:36;;;;;;;185.57;177.25;;;;;;;;;;5075098;28;20168;-72
2021/04/28 14:50:02;;;;;;;159.70;152.40;;;;;;;;;;5074910;28;20188;-71
2021/04/28 14:52:28;;;;;;;161.88;154.57;;;;;;;;;;5074920;28;20171;-72
2021/04/28 14:54:54;;;;;;;210.20;200.77;;;;;;;;;;5074837;28;20164;-72
2021/04/28 14:57:20;;;;;;;195.93;186.15;;;;;;;;;;5074886;28;20618;-72
2021/04/28 14:59:46;;;;;;;205.00;195.63;;;;;;;;;;5074824;28;20175;-72
2021/04/28 15:02:12;;;;;;;199.32;190.32;;;;;;;;;;5073782;28;20176;-73
2021/04/28 15:04:38;;;;;;;219.60;209.55;;;;;;;;;;5074740;28;20510;-70
2021/04/28 15:07:05;;;;;;;239.23;228.45;;;;;;;;;;5074554;28;20180;-70
2021/04/28 15:09:31;;;;;;;240.00;229.13;;;;;;;;;;5074506;28;20245;-70
2021/04/28 15:11:57;;;;;;;233.38;222.93;;;;;;;;;;5073300;28;20171;-70
2021/04/28 15:14:23;;;;;;;208.38;199.10;;;;;;;;;;5073241;28;20675;-69
2021/04/28 15:16:49;;;;;;;225.50;215.45;;;;;;;;;;5074419;28;20168;-72
2021/04/28 15:19:15;;;;;;;207.93;198.68;;;;;;;;;;5073115;28;20171;-70
2021/04/28 15:21:41;;;;;;;183.68;175.48;;;;;;;;;;5074274;28;20251;-71
2021/04/28 15:24:08;;;;;;;183.45;175.23;;;;;;;;;;5072999;28;20202;-70
2021/04/28 15:26:34;;;;;;;183.80;175.52;;;;;;;;;;5074234;28;20629;-71
2021/04/28 15:29:02;;;;;;;241.93;231.10;;;;;;;;;;5074076;28;20202;-70
2021/04/28 15:31:28;;;;;;;193.70;185.10;;;;;;;;;;5074130;28;20183;-71
2021/04/28 15:33:54;;;;;;;194.23;185.52;;;;;;;;;;5074097;28;20199;-71
2021/04/28 15:36:20;;;;;;;190.32;181.75;;;;;;;;;;5074000;28;20168;-70
2021/04/28 15:38:46;;;;;;;194.98;186.20;;;;;;;;;;5073913;28;20215;-71
2021/04/28 15:41:12;;;;;;;194.07;185.38;;;;;;;;;;5073886;28;20664;-71
2021/04/28 15:43:38;;;;;;;190.50;181.93;;;;;;;;;;5072560;28;20179;-71
2021/04/28 15:46:04;;;;;;;198.85;189.93;;;;;;;;;;5073835;28;20164;-70
2021/04/28 15:48:30;;;;;;;202.10;193.10;;;;;;;;;;5074340;28;20172;-71
2021/04/28 15:50:56;;;;;;;214.30;204.68;;;;;;;;;;5073892;28;20174;-71
2021/04/28 15:53:22;;;;;;;222.50;212.57;;;;;;;;;;5073821;28;20164;-71
2021/04/28 15:56:22;;;;;;;216.68;206.98;;;;;;;;;;5073518;28;20510;-70
2021/04/28 15:58:48;;;;;;;185.88;177.52;;;;;;;;;;5073715;28;20164;-70
2021/04/28 16:23:54;;;;;;;98.25;93.90;;;;;;;;;;5090820;28;20545;-71
2021/04/28 16:26:20;;;;;;;108.60;103.20;;;;;;;;;;5090831;28;20648;-72
2021/04/28 16:28:46;;;;;;;122.82;117.28;;;;;;;;;;5090770;28;20164;-72
2021/04/28 16:31:12;;;;;;;133.93;127.72;;;;;;;;;;5090752;28;20226;-72
2021/04/28 16:33:38;;;;;;;141.23;134.63;;;;;;;;;;5090686;28;20213;-72
